Addison Township, Michigan
Current Conditions -  °F | °C
As of 5:54 PM on Thursday 27 Nov 2014 (Local Time) from KD95 Reporting Station
Overcast Overcast  
Wind Chill: 17°   Ceiling: 3200
Heat Index: 27°   Visibility: 10mi
Dew Point: 15°   Wind: 10mph
Humidity: 62%   Direction: 320°NW
Pressure: 30.23"   Gusts: NA
Location:  42.8434°N, 83.1398°W
Report Text: KD95 272254Z AUTO 32009KT 10SM OVC032 M03/M09 A3023 RMK AO2 T10281092
Loading
Personal Weather Stations






























Interactive Weather Map New forecast layout! Learn more

10-Day Weather Forecast

Advertisements
Track Severe Weather on mobile